createdAt,value
2022-10-20T00:00:03.469Z,10.36
2022-10-20T00:01:03.499Z,10.40
2022-10-20T00:02:02.787Z,10.41
2022-10-20T00:03:02.755Z,10.42
2022-10-20T00:04:03.039Z,10.41
2022-10-20T00:05:02.769Z,10.41
2022-10-20T00:06:02.754Z,10.41
2022-10-20T00:07:03.031Z,10.37
2022-10-20T00:08:03.090Z,10.41
2022-10-20T00:09:02.670Z,10.37
2022-10-20T00:10:03.030Z,10.39
2022-10-20T00:11:03.060Z,10.39
2022-10-20T00:12:03.462Z,10.42
2022-10-20T00:13:03.155Z,10.43
2022-10-20T00:14:02.963Z,10.46
2022-10-20T00:15:03.445Z,10.45
2022-10-20T00:16:03.315Z,10.50
2022-10-20T00:17:03.479Z,10.49
2022-10-20T00:18:03.440Z,10.50
2022-10-20T00:19:03.836Z,10.52
2022-10-20T00:20:03.575Z,10.46
2022-10-20T00:21:03.506Z,10.45
2022-10-20T00:22:02.374Z,10.44
2022-10-20T00:23:02.865Z,10.45
2022-10-20T00:24:02.743Z,10.43
2022-10-20T00:25:02.522Z,10.42
2022-10-20T00:26:03.003Z,10.43
2022-10-20T00:27:02.667Z,10.42
2022-10-20T00:28:02.849Z,10.40
2022-10-20T00:29:02.914Z,10.41
2022-10-20T00:30:02.751Z,10.41
2022-10-20T00:31:02.969Z,10.31
2022-10-20T00:32:02.913Z,10.32
2022-10-20T00:33:02.897Z,10.32
2022-10-20T00:34:03.349Z,10.26
2022-10-20T00:35:03.211Z,10.26
2022-10-20T00:36:03.369Z,10.27
2022-10-20T00:37:03.153Z,10.25
2022-10-20T00:38:03.227Z,10.28
2022-10-20T00:39:03.605Z,10.29
2022-10-20T00:40:03.121Z,10.33
2022-10-20T00:41:03.319Z,10.32
2022-10-20T00:42:03.133Z,10.35
2022-10-20T00:43:03.752Z,10.40
2022-10-20T00:44:03.378Z,10.43
2022-10-20T00:45:03.561Z,10.46
2022-10-20T00:46:03.736Z,10.46
2022-10-20T00:47:02.393Z,10.51
2022-10-20T00:48:02.484Z,10.51
2022-10-20T00:49:02.831Z,10.53
2022-10-20T00:50:02.845Z,10.54
2022-10-20T00:51:02.698Z,10.56
2022-10-20T00:52:02.561Z,10.61
2022-10-20T00:53:02.533Z,10.64
2022-10-20T00:54:02.812Z,10.66
2022-10-20T00:55:02.660Z,10.70
2022-10-20T00:56:02.472Z,10.69
2022-10-20T00:58:03.443Z,10.74
2022-10-20T00:59:03.194Z,10.75
2022-10-20T01:00:03.549Z,10.75
2022-10-20T01:01:03.126Z,10.76
2022-10-20T01:02:03.004Z,10.73
2022-10-20T01:03:02.913Z,10.68
2022-10-20T01:04:02.733Z,10.63
2022-10-20T01:05:03.161Z,10.64
2022-10-20T01:06:02.951Z,10.64
2022-10-20T01:07:03.432Z,10.67
2022-10-20T01:08:03.883Z,10.66
2022-10-20T01:09:03.472Z,10.64
2022-10-20T01:10:03.624Z,10.65
2022-10-20T01:11:03.429Z,10.63
2022-10-20T01:12:02.999Z,10.62
2022-10-20T01:13:03.164Z,10.60
2022-10-20T01:14:02.956Z,10.61
2022-10-20T01:15:02.998Z,10.61
2022-10-20T01:16:02.884Z,10.63
2022-10-20T01:17:03.380Z,10.61
2022-10-20T01:18:03.626Z,10.60
2022-10-20T01:19:03.484Z,10.60
2022-10-20T01:20:03.260Z,10.55
2022-10-20T01:21:03.654Z,10.53
2022-10-20T01:22:02.788Z,10.47
2022-10-20T01:23:02.583Z,10.39
2022-10-20T01:24:03.063Z,10.37
2022-10-20T01:25:02.927Z,10.36
2022-10-20T01:26:02.719Z,10.33
2022-10-20T01:27:03.482Z,10.33
2022-10-20T01:28:03.277Z,10.33
2022-10-20T01:29:03.053Z,10.35
2022-10-20T01:30:03.598Z,10.37
2022-10-20T01:31:03.077Z,10.39
2022-10-20T01:32:03.268Z,10.37
2022-10-20T01:33:03.634Z,10.36
2022-10-20T01:34:03.728Z,10.32
2022-10-20T01:35:03.464Z,10.28
2022-10-20T01:36:03.258Z,10.24
2022-10-20T01:37:02.833Z,10.22
2022-10-20T01:38:02.609Z,10.21
2022-10-20T01:39:03.101Z,10.17
2022-10-20T01:40:02.893Z,10.14
2022-10-20T01:41:02.766Z,10.16
2022-10-20T01:42:03.502Z,10.18
2022-10-20T01:43:03.369Z,10.20
2022-10-20T01:44:03.306Z,10.22
2022-10-20T01:45:03.174Z,10.24
2022-10-20T01:46:03.041Z,10.23
2022-10-20T01:47:03.585Z,10.19
2022-10-20T01:48:03.452Z,10.20
2022-10-20T01:49:03.363Z,10.18
2022-10-20T01:50:03.527Z,10.18
2022-10-20T01:51:03.583Z,10.16
2022-10-20T01:52:03.546Z,10.15
2022-10-20T01:53:03.260Z,10.15
2022-10-20T01:54:03.418Z,10.13
2022-10-20T01:55:03.099Z,10.09
2022-10-20T01:56:03.137Z,10.10
2022-10-20T01:57:03.624Z,10.04
2022-10-20T01:58:03.870Z,10.04
2022-10-20T01:59:03.615Z,10.05
2022-10-20T02:00:03.312Z,10.01
2022-10-20T02:01:03.821Z,9.96
2022-10-20T02:02:03.424Z,9.99
2022-10-20T02:03:03.192Z,10.02
2022-10-20T02:04:03.539Z,10.02
2022-10-20T02:05:03.507Z,10.03
2022-10-20T02:06:03.579Z,10.04
2022-10-20T02:07:02.517Z,10.05
2022-10-20T02:08:02.566Z,10.06
2022-10-20T02:09:02.472Z,10.08
2022-10-20T02:10:02.935Z,10.09
2022-10-20T02:11:02.862Z,10.12
2022-10-20T02:12:03.402Z,10.09
2022-10-20T02:13:03.245Z,10.11
2022-10-20T02:14:03.504Z,10.09
2022-10-20T02:15:03.247Z,10.06
2022-10-20T02:16:03.096Z,10.08
2022-10-20T02:17:02.893Z,10.08
2022-10-20T02:18:02.983Z,10.07
2022-10-20T02:19:02.398Z,10.07
2022-10-20T02:20:02.330Z,10.05
2022-10-20T02:21:02.873Z,10.09
2022-10-20T02:22:02.882Z,10.13
2022-10-20T02:23:03.364Z,10.14
2022-10-20T02:24:03.195Z,10.17
2022-10-20T02:25:03.373Z,10.17
2022-10-20T02:26:03.325Z,10.22
2022-10-20T02:27:02.451Z,10.23
2022-10-20T02:28:02.517Z,10.27
2022-10-20T02:29:02.956Z,10.30
2022-10-20T02:30:02.513Z,10.33
2022-10-20T02:31:02.946Z,10.37
2022-10-20T02:32:03.022Z,10.39
2022-10-20T02:33:02.831Z,10.40
2022-10-20T02:34:02.717Z,10.36
2022-10-20T02:35:05.163Z,10.40
2022-10-20T02:36:02.981Z,10.41
2022-10-20T02:37:03.499Z,10.41
2022-10-20T02:38:03.472Z,10.43
2022-10-20T02:39:02.883Z,10.44
2022-10-20T02:40:03.450Z,10.44
2022-10-20T02:41:03.396Z,10.46
2022-10-20T02:42:02.982Z,10.48
2022-10-20T02:43:02.774Z,10.48
2022-10-20T02:44:02.314Z,10.52
2022-10-20T02:45:02.785Z,10.53
2022-10-20T02:46:02.645Z,10.55
2022-10-20T02:47:02.791Z,10.56
2022-10-20T02:48:05.165Z,10.59
2022-10-20T02:49:02.958Z,10.62
2022-10-20T02:50:02.812Z,10.63
2022-10-20T02:51:02.603Z,10.65
2022-10-20T02:52:02.207Z,10.69
2022-10-20T02:53:02.693Z,10.72
2022-10-20T02:54:02.452Z,10.76
2022-10-20T02:55:02.363Z,10.79
2022-10-20T02:56:02.178Z,10.79
2022-10-20T02:57:03.058Z,10.78
2022-10-20T02:58:02.806Z,10.78
2022-10-20T02:59:02.745Z,10.77
2022-10-20T03:00:03.186Z,10.77
2022-10-20T03:01:02.919Z,10.77
2022-10-20T03:02:02.778Z,10.78
2022-10-20T03:03:03.274Z,10.75
2022-10-20T03:04:02.799Z,10.73
2022-10-20T03:05:02.767Z,10.68
2022-10-20T03:06:02.764Z,10.70
2022-10-20T03:07:02.413Z,10.71
2022-10-20T03:08:02.284Z,10.68
2022-10-20T03:09:02.726Z,10.68
2022-10-20T03:10:02.388Z,10.69
2022-10-20T03:11:02.446Z,10.69
2022-10-20T03:12:01.962Z,10.71
2022-10-20T03:13:02.416Z,10.67
2022-10-20T03:14:02.132Z,10.65
2022-10-20T03:15:01.974Z,10.65
2022-10-20T03:16:02.009Z,10.62
2022-10-20T03:17:03.078Z,10.60
2022-10-20T03:18:02.492Z,10.63
2022-10-20T03:19:05.351Z,10.59
2022-10-20T03:20:02.450Z,10.61
2022-10-20T03:21:02.850Z,10.58
2022-10-20T03:22:02.624Z,10.54
2022-10-20T03:23:02.973Z,10.56
2022-10-20T03:24:02.940Z,10.57
2022-10-20T03:25:02.743Z,10.57
2022-10-20T03:26:02.785Z,10.61
2022-10-20T03:27:02.696Z,10.61
2022-10-20T03:28:02.601Z,10.64
2022-10-20T03:29:02.206Z,10.61
2022-10-20T03:30:02.830Z,10.58
2022-10-20T03:31:02.382Z,10.61
2022-10-20T03:32:03.142Z,10.61
2022-10-20T03:33:02.785Z,10.55
2022-10-20T03:34:02.585Z,10.51
2022-10-20T03:35:02.600Z,10.51
2022-10-20T03:36:02.724Z,10.51
2022-10-20T03:37:02.719Z,10.50
2022-10-20T03:38:02.108Z,10.52
2022-10-20T03:39:02.577Z,10.51
2022-10-20T03:40:02.333Z,10.51
2022-10-20T03:42:02.789Z,10.52
2022-10-20T03:43:02.695Z,10.56
2022-10-20T03:44:02.577Z,10.59
2022-10-20T03:45:02.490Z,10.63
2022-10-20T03:46:03.087Z,10.62
2022-10-20T03:47:02.494Z,10.66
2022-10-20T03:48:02.591Z,10.62
2022-10-20T03:49:02.546Z,10.64
2022-10-20T03:50:02.694Z,10.64
2022-10-20T03:51:02.422Z,10.67
2022-10-20T03:52:03.009Z,10.68
2022-10-20T03:53:03.189Z,10.68
2022-10-20T03:54:02.750Z,10.70
2022-10-20T03:55:02.679Z,10.71
2022-10-20T03:56:02.700Z,10.69
2022-10-20T03:57:06.794Z,10.65
2022-10-20T03:58:02.142Z,10.66
2022-10-20T04:00:02.035Z,10.70
2022-10-20T04:01:02.159Z,10.72
2022-10-20T04:02:02.795Z,10.72
2022-10-20T04:03:02.693Z,10.71
2022-10-20T04:04:02.626Z,10.74
2022-10-20T04:05:02.513Z,10.71
2022-10-20T04:06:02.429Z,10.71
2022-10-20T04:07:02.902Z,10.72
2022-10-20T04:08:03.178Z,10.74
2022-10-20T04:09:02.768Z,10.78
2022-10-20T04:10:02.931Z,10.74
2022-10-20T04:11:02.797Z,10.72
2022-10-20T04:12:02.383Z,10.75
2022-10-20T04:13:01.913Z,10.73
2022-10-20T04:14:02.053Z,10.71
2022-10-20T04:15:01.968Z,10.74
2022-10-20T04:16:01.834Z,10.77
2022-10-20T04:17:02.345Z,10.80
2022-10-20T04:18:01.904Z,10.83
2022-10-20T04:19:02.531Z,10.80
2022-10-20T04:20:02.206Z,10.82
2022-10-20T04:21:01.868Z,10.82
2022-10-20T04:22:02.210Z,10.73
2022-10-20T04:23:02.562Z,10.75
2022-10-20T04:24:02.439Z,10.75
2022-10-20T04:25:02.597Z,10.76
2022-10-20T04:26:02.443Z,10.70
2022-10-20T04:27:03.115Z,10.69
2022-10-20T04:28:03.056Z,10.68
2022-10-20T04:29:02.964Z,10.67
2022-10-20T04:30:02.951Z,10.65
2022-10-20T04:31:03.340Z,10.64
2022-10-20T04:32:02.915Z,10.64
2022-10-20T04:33:02.624Z,10.64
2022-10-20T04:34:02.568Z,10.65
2022-10-20T04:35:02.918Z,10.68
2022-10-20T04:36:02.642Z,10.69
2022-10-20T04:37:02.932Z,10.70
2022-10-20T04:38:02.527Z,10.69
2022-10-20T04:39:02.527Z,10.70
2022-10-20T04:40:02.945Z,10.73
2022-10-20T04:41:04.217Z,10.76
2022-10-20T04:42:02.985Z,10.71
2022-10-20T04:43:02.914Z,10.75
2022-10-20T04:44:03.091Z,10.78
2022-10-20T04:45:03.036Z,10.77
2022-10-20T04:46:06.908Z,10.78
2022-10-20T04:47:03.035Z,10.82
2022-10-20T04:48:02.604Z,10.79
2022-10-20T04:49:02.457Z,10.82
2022-10-20T04:50:02.463Z,10.83
2022-10-20T04:51:02.942Z,10.84
2022-10-20T04:52:02.469Z,10.85
2022-10-20T04:53:02.153Z,10.83
2022-10-20T04:54:02.507Z,10.87
2022-10-20T04:55:02.194Z,10.91
2022-10-20T04:56:02.091Z,10.95
2022-10-20T04:57:02.546Z,10.96
2022-10-20T04:58:02.488Z,11.01
2022-10-20T04:59:02.172Z,11.01
2022-10-20T05:00:02.655Z,11.04
2022-10-20T05:01:02.238Z,11.02
2022-10-20T05:02:02.825Z,11.00
2022-10-20T05:03:02.490Z,10.98
2022-10-20T05:04:02.414Z,10.96
2022-10-20T05:05:02.184Z,10.95
2022-10-20T05:06:02.641Z,10.97
2022-10-20T05:07:02.421Z,10.99
2022-10-20T05:08:03.004Z,10.98
2022-10-20T05:09:02.568Z,11.00
2022-10-20T05:10:02.546Z,10.96
2022-10-20T05:11:02.443Z,10.98
2022-10-20T05:12:02.225Z,11.00
2022-10-20T05:13:02.043Z,11.01
2022-10-20T05:14:02.619Z,11.03
2022-10-20T05:15:02.136Z,11.03
2022-10-20T05:16:02.365Z,11.03
2022-10-20T05:17:04.204Z,11.03
2022-10-20T05:18:02.701Z,11.04
2022-10-20T05:19:02.178Z,11.01
2022-10-20T05:20:02.727Z,10.98
2022-10-20T05:21:08.950Z,11.02
2022-10-20T05:22:02.934Z,11.03
2022-10-20T05:23:02.567Z,11.03
2022-10-20T05:24:02.649Z,11.00
2022-10-20T05:25:24.554Z,11.00
2022-10-20T05:26:02.926Z,11.01
2022-10-20T05:27:02.617Z,11.00
2022-10-20T05:28:03.070Z,11.01
2022-10-20T05:29:02.951Z,11.00
2022-10-20T05:30:03.508Z,11.04
2022-10-20T05:31:02.665Z,11.03
2022-10-20T05:32:02.860Z,11.04
2022-10-20T05:33:02.826Z,11.06
2022-10-20T05:34:02.385Z,11.04
2022-10-20T05:35:02.893Z,11.05
2022-10-20T05:36:02.540Z,11.03
2022-10-20T05:37:02.604Z,11.04
2022-10-20T05:38:02.614Z,11.03
2022-10-20T05:39:02.706Z,11.03
2022-10-20T05:40:02.830Z,11.03
2022-10-20T05:41:02.894Z,10.98
2022-10-20T05:42:03.122Z,10.98
2022-10-20T05:43:02.927Z,10.96
2022-10-20T05:44:03.208Z,10.97
2022-10-20T05:45:03.058Z,10.94
2022-10-20T05:46:03.343Z,10.90
2022-10-20T05:47:02.841Z,10.93
2022-10-20T05:48:02.426Z,10.90
2022-10-20T05:49:02.776Z,10.92
2022-10-20T05:50:02.520Z,10.96
2022-10-20T05:51:02.345Z,10.97
2022-10-20T05:52:03.080Z,10.94
2022-10-20T05:53:03.075Z,10.99
2022-10-20T05:54:02.870Z,10.96
2022-10-20T05:55:03.496Z,10.99
2022-10-20T05:56:02.986Z,10.95
2022-10-20T05:57:02.930Z,10.96
2022-10-20T05:58:02.834Z,10.94
2022-10-20T05:59:02.736Z,10.94
2022-10-20T06:00:02.856Z,10.94
2022-10-20T06:01:02.356Z,10.98
2022-10-20T06:02:02.499Z,10.99
2022-10-20T06:03:02.409Z,10.97
2022-10-20T06:04:01.840Z,10.97
2022-10-20T06:05:02.354Z,10.97
2022-10-20T06:06:02.353Z,10.92
2022-10-20T06:07:02.589Z,10.88
2022-10-20T06:08:02.503Z,10.90
2022-10-20T06:09:02.774Z,10.91
2022-10-20T06:10:02.711Z,10.86
2022-10-20T06:11:02.546Z,10.87
2022-10-20T06:12:02.263Z,10.91
2022-10-20T06:13:02.032Z,10.93
2022-10-20T06:14:02.118Z,10.91
2022-10-20T06:15:02.588Z,10.90
2022-10-20T06:16:02.316Z,10.92
2022-10-20T06:17:02.779Z,10.90
2022-10-20T06:18:02.928Z,10.92
2022-10-20T06:19:02.476Z,10.90
2022-10-20T06:20:02.623Z,10.96
2022-10-20T06:21:02.567Z,10.95
2022-10-20T06:22:05.541Z,10.93
2022-10-20T06:23:01.968Z,10.93
2022-10-20T06:24:02.402Z,10.93
2022-10-20T06:25:02.411Z,10.94
2022-10-20T06:26:02.291Z,10.93
2022-10-20T06:27:02.178Z,10.93
2022-10-20T06:28:01.961Z,10.94
2022-10-20T06:29:04.605Z,10.97
2022-10-20T06:30:02.332Z,10.98
2022-10-20T06:31:02.343Z,11.01
2022-10-20T06:32:02.054Z,11.02
2022-10-20T06:33:02.037Z,11.05
2022-10-20T06:34:02.224Z,11.07
2022-10-20T06:35:02.402Z,11.08
2022-10-20T06:36:02.356Z,11.09
2022-10-20T06:37:02.104Z,11.15
2022-10-20T06:38:02.676Z,11.17
2022-10-20T06:39:02.365Z,11.21
2022-10-20T06:40:02.293Z,11.19
2022-10-20T06:41:02.636Z,11.18
2022-10-20T06:42:02.590Z,11.17
2022-10-20T06:43:02.801Z,11.16
2022-10-20T06:44:02.538Z,11.12
2022-10-20T06:45:02.258Z,11.14
2022-10-20T06:46:02.723Z,11.13
2022-10-20T06:47:02.563Z,11.12
2022-10-20T06:48:02.638Z,11.11
2022-10-20T06:49:02.656Z,11.13
2022-10-20T06:50:02.630Z,11.14
2022-10-20T06:51:02.533Z,11.15
2022-10-20T06:52:01.660Z,11.14
2022-10-20T06:53:01.665Z,11.15
2022-10-20T06:54:01.764Z,11.15
2022-10-20T06:55:01.788Z,11.14
2022-10-20T06:56:01.721Z,11.18
2022-10-20T06:57:02.453Z,11.22
2022-10-20T06:58:02.091Z,11.23
2022-10-20T06:59:02.143Z,11.21
2022-10-20T07:00:02.373Z,11.21
2022-10-20T07:01:04.470Z,11.23
2022-10-20T07:02:03.169Z,11.20
2022-10-20T07:03:03.090Z,11.17
2022-10-20T07:04:02.902Z,11.16
2022-10-20T07:05:03.549Z,11.17
2022-10-20T07:06:03.199Z,11.16
2022-10-20T07:07:02.761Z,11.14
2022-10-20T07:08:02.741Z,11.16
2022-10-20T07:09:03.025Z,11.16
2022-10-20T07:10:02.842Z,11.15
2022-10-20T07:11:02.466Z,11.18
2022-10-20T07:12:02.743Z,11.22
2022-10-20T07:13:03.004Z,11.23
2022-10-20T07:14:03.490Z,11.20
2022-10-20T07:15:02.869Z,11.17
2022-10-20T07:16:03.234Z,11.21
2022-10-20T07:17:02.685Z,11.26
2022-10-20T07:18:02.749Z,11.26
2022-10-20T07:19:02.214Z,11.28
2022-10-20T07:20:02.720Z,11.30
2022-10-20T07:21:02.604Z,11.35
2022-10-20T07:22:02.978Z,11.38
2022-10-20T07:23:03.035Z,11.36
2022-10-20T07:24:02.499Z,11.38
2022-10-20T07:25:03.113Z,11.38
2022-10-20T07:26:02.726Z,11.37
2022-10-20T07:27:03.488Z,11.35
2022-10-20T07:28:03.546Z,11.33
2022-10-20T07:29:03.528Z,11.35
2022-10-20T07:30:02.971Z,11.36
2022-10-20T07:31:03.546Z,11.33
2022-10-20T07:32:02.991Z,11.32
2022-10-20T07:33:03.091Z,11.34
2022-10-20T07:34:26.117Z,11.38
2022-10-20T07:35:02.951Z,11.38
2022-10-20T07:36:02.832Z,11.37
2022-10-20T07:37:03.570Z,11.38
2022-10-20T07:38:03.504Z,11.37
2022-10-20T07:39:03.486Z,11.38
2022-10-20T07:40:03.089Z,11.41
2022-10-20T07:41:03.641Z,11.42
2022-10-20T07:42:03.035Z,11.43
2022-10-20T07:43:03.071Z,11.46
2022-10-20T07:44:03.107Z,11.47
2022-10-20T07:45:03.197Z,11.48
2022-10-20T07:46:03.068Z,11.43
2022-10-20T07:47:03.633Z,11.45
2022-10-20T07:48:03.575Z,11.50
2022-10-20T07:50:03.193Z,11.52
2022-10-20T07:51:03.538Z,11.55
2022-10-20T07:52:03.158Z,11.58
2022-10-20T07:53:02.871Z,11.53
2022-10-20T07:54:02.536Z,11.55
2022-10-20T07:55:12.462Z,11.57
2022-10-20T07:56:02.658Z,11.62
2022-10-20T07:57:03.500Z,11.61
2022-10-20T07:58:03.203Z,11.66
2022-10-20T07:59:03.168Z,11.72
2022-10-20T08:00:02.766Z,11.74
2022-10-20T08:01:03.155Z,11.75
2022-10-20T08:02:02.876Z,11.77
2022-10-20T08:03:02.753Z,11.75
2022-10-20T08:04:02.342Z,11.72
2022-10-20T08:05:02.863Z,11.72
2022-10-20T08:06:02.402Z,11.73
2022-10-20T08:07:02.379Z,11.71
2022-10-20T08:08:02.913Z,11.71
2022-10-20T08:09:02.972Z,11.73
2022-10-20T08:10:02.874Z,11.77
2022-10-20T08:11:02.951Z,11.79
2022-10-20T08:12:02.983Z,11.81
2022-10-20T08:13:02.833Z,11.83
2022-10-20T08:14:03.077Z,11.81
2022-10-20T08:15:03.412Z,11.82
2022-10-20T08:16:02.733Z,11.85
2022-10-20T08:17:02.434Z,11.88
2022-10-20T08:18:02.411Z,11.90
2022-10-20T08:19:03.090Z,11.88
2022-10-20T08:21:02.533Z,11.94
2022-10-20T08:22:02.066Z,11.96
2022-10-20T08:23:02.101Z,11.99
2022-10-20T08:24:02.342Z,12.02
2022-10-20T08:25:02.566Z,12.04
2022-10-20T08:26:02.087Z,12.06
2022-10-20T08:27:02.667Z,12.07
2022-10-20T08:28:02.757Z,12.07
2022-10-20T08:29:02.645Z,12.06
2022-10-20T08:30:22.370Z,12.06
2022-10-20T08:31:02.687Z,12.09
2022-10-20T08:32:01.982Z,12.12
2022-10-20T08:33:02.118Z,12.09
2022-10-20T08:34:02.020Z,12.07
2022-10-20T08:35:02.030Z,12.10
2022-10-20T08:36:02.113Z,12.09
2022-10-20T08:37:02.249Z,12.12
2022-10-20T08:38:02.473Z,12.16
2022-10-20T08:39:05.231Z,12.17
2022-10-20T08:40:02.476Z,12.19
2022-10-20T08:41:02.312Z,12.21
2022-10-20T08:42:08.591Z,12.18
2022-10-20T08:43:02.318Z,12.21
2022-10-20T08:44:02.261Z,12.23
2022-10-20T08:45:02.083Z,12.24
2022-10-20T08:46:02.716Z,12.28
2022-10-20T08:47:02.625Z,12.25
2022-10-20T08:48:02.951Z,12.24
2022-10-20T08:49:02.396Z,12.20
2022-10-20T08:50:02.940Z,12.19
2022-10-20T08:51:02.742Z,12.24
2022-10-20T08:52:02.730Z,12.21
2022-10-20T08:53:03.072Z,12.19
2022-10-20T08:54:02.838Z,12.20
2022-10-20T08:55:02.904Z,12.23
2022-10-20T08:56:02.963Z,12.19
2022-10-20T08:57:02.754Z,12.20
2022-10-20T08:58:03.156Z,12.21
2022-10-20T08:59:03.485Z,12.20
2022-10-20T09:00:06.817Z,12.18
2022-10-20T09:01:02.880Z,12.19
2022-10-20T09:02:03.157Z,12.14
2022-10-20T09:03:03.087Z,12.15
2022-10-20T09:04:03.489Z,12.15
2022-10-20T09:05:03.468Z,12.14
2022-10-20T09:06:02.947Z,12.14
2022-10-20T09:07:03.261Z,12.13
2022-10-20T09:08:03.658Z,12.15
2022-10-20T09:09:03.167Z,12.18
2022-10-20T09:10:03.573Z,12.15
2022-10-20T09:11:03.561Z,12.16
2022-10-20T09:12:03.213Z,12.15
2022-10-20T09:13:03.501Z,12.16
2022-10-20T09:14:03.564Z,12.17
2022-10-20T09:15:03.526Z,12.19
2022-10-20T09:16:03.511Z,12.17
2022-10-20T09:17:02.914Z,12.16
2022-10-20T09:18:02.798Z,12.17
2022-10-20T09:19:02.950Z,12.18
2022-10-20T09:20:03.120Z,12.19
2022-10-20T09:21:03.307Z,12.16
2022-10-20T09:22:03.107Z,12.19
2022-10-20T09:23:07.989Z,12.19
2022-10-20T09:24:03.154Z,12.24
2022-10-20T09:25:03.183Z,12.24
2022-10-20T09:26:03.105Z,12.29
2022-10-20T09:27:02.849Z,12.30
2022-10-20T09:28:02.931Z,12.31
2022-10-20T09:29:12.840Z,12.30
2022-10-20T09:30:02.951Z,12.29
2022-10-20T09:31:03.013Z,12.32
2022-10-20T09:32:16.805Z,12.30
2022-10-20T09:33:03.663Z,12.35
2022-10-20T09:34:03.166Z,12.36
2022-10-20T09:35:03.154Z,12.37
2022-10-20T09:36:03.528Z,12.35
2022-10-20T09:37:02.836Z,12.38
2022-10-20T09:38:02.794Z,12.42
2022-10-20T09:39:02.688Z,12.41
2022-10-20T09:40:02.791Z,12.45
2022-10-20T09:41:02.563Z,12.49
2022-10-20T09:43:03.299Z,12.50
2022-10-20T09:44:03.487Z,12.51
2022-10-20T09:45:03.494Z,12.47
2022-10-20T09:46:03.473Z,12.51
2022-10-20T09:47:03.238Z,12.55
2022-10-20T09:48:03.510Z,12.52
2022-10-20T09:49:03.488Z,12.55
2022-10-20T09:50:03.130Z,12.58
2022-10-20T09:51:03.176Z,12.60
2022-10-20T09:52:03.510Z,12.64
2022-10-20T09:53:03.614Z,12.62
2022-10-20T09:54:03.728Z,12.65
2022-10-20T09:55:03.623Z,12.64
2022-10-20T09:56:03.539Z,12.65
2022-10-20T09:57:03.276Z,12.70
2022-10-20T09:58:03.477Z,12.73
2022-10-20T09:59:03.190Z,12.74
2022-10-20T10:00:18.870Z,12.76
2022-10-20T10:01:03.461Z,12.79
2022-10-20T10:02:02.903Z,12.78
2022-10-20T10:03:02.969Z,12.77
2022-10-20T10:04:03.714Z,12.80
2022-10-20T10:05:02.958Z,12.84
2022-10-20T10:06:02.782Z,12.81
2022-10-20T10:07:02.588Z,12.83
2022-10-20T10:08:02.636Z,12.83
2022-10-20T10:09:02.553Z,12.84
2022-10-20T10:10:05.608Z,12.86
2022-10-20T10:11:02.319Z,12.88
2022-10-20T10:12:02.775Z,12.86
2022-10-20T10:13:02.644Z,12.88
2022-10-20T10:14:02.583Z,12.87
2022-10-20T10:15:02.433Z,12.85
2022-10-20T10:16:02.831Z,12.83
2022-10-20T10:17:03.413Z,12.88
2022-10-20T10:18:03.237Z,12.92
2022-10-20T10:19:03.395Z,12.96
2022-10-20T10:20:02.983Z,12.96
2022-10-20T10:21:03.032Z,13.02
2022-10-20T10:22:03.118Z,13.03
2022-10-20T10:23:02.858Z,13.10
2022-10-20T10:24:03.032Z,13.11
2022-10-20T10:25:02.916Z,13.12
2022-10-20T10:26:03.344Z,13.09
2022-10-20T10:27:03.247Z,13.13
2022-10-20T10:28:02.941Z,13.08
2022-10-20T10:29:02.993Z,13.16
2022-10-20T10:30:02.917Z,13.14
2022-10-20T10:31:02.964Z,13.14
2022-10-20T10:32:03.666Z,13.14
2022-10-20T10:33:03.199Z,13.16
2022-10-20T10:34:03.435Z,13.17
2022-10-20T10:35:03.359Z,13.13
2022-10-20T10:36:03.156Z,13.15
2022-10-20T10:37:02.599Z,13.13
2022-10-20T10:38:03.093Z,13.10
2022-10-20T10:39:03.117Z,13.09
2022-10-20T10:40:02.776Z,13.16
2022-10-20T10:41:02.651Z,13.18
2022-10-20T10:42:02.679Z,13.16
2022-10-20T10:43:02.926Z,13.19
2022-10-20T10:44:03.006Z,13.14
2022-10-20T10:45:03.036Z,13.19
2022-10-20T10:46:03.286Z,13.23
2022-10-20T10:47:03.492Z,13.22
2022-10-20T10:48:02.896Z,13.28
2022-10-20T10:49:02.915Z,13.30
2022-10-20T10:50:02.716Z,13.36
2022-10-20T10:51:02.599Z,13.39
2022-10-20T10:52:02.916Z,13.43
2022-10-20T10:53:02.552Z,13.42
2022-10-20T10:54:02.608Z,13.45
2022-10-20T10:55:02.116Z,13.48
2022-10-20T10:56:02.198Z,13.45
2022-10-20T10:57:02.290Z,13.46
2022-10-20T10:58:02.989Z,13.50
2022-10-20T10:59:03.110Z,13.50
2022-10-20T11:00:03.515Z,13.53
2022-10-20T11:01:03.340Z,13.51
2022-10-20T11:02:02.919Z,13.55
2022-10-20T11:03:02.579Z,13.53
2022-10-20T11:04:02.684Z,13.55
2022-10-20T11:05:02.581Z,13.59
2022-10-20T11:06:02.417Z,13.58
2022-10-20T11:07:02.725Z,13.62
2022-10-20T11:08:02.580Z,13.65
2022-10-20T11:09:02.431Z,13.67
2022-10-20T11:10:02.628Z,13.64
2022-10-20T11:11:03.020Z,13.65
2022-10-20T11:12:02.831Z,13.68
2022-10-20T11:13:02.861Z,13.67
2022-10-20T11:14:02.519Z,13.62
2022-10-20T11:15:02.484Z,13.64
2022-10-20T11:16:02.507Z,13.67
2022-10-20T11:17:02.990Z,13.68
2022-10-20T11:18:02.831Z,13.66
2022-10-20T11:19:03.197Z,13.64
2022-10-20T11:20:03.283Z,13.64
2022-10-20T11:21:03.013Z,13.66
2022-10-20T11:22:02.996Z,13.67
2022-10-20T11:23:02.595Z,13.70
2022-10-20T11:24:02.694Z,13.74
2022-10-20T11:25:02.783Z,13.76
2022-10-20T11:26:02.969Z,13.78
2022-10-20T11:27:02.504Z,13.79
2022-10-20T11:28:02.807Z,13.85
2022-10-20T11:29:03.198Z,13.89
2022-10-20T11:30:02.772Z,13.83
2022-10-20T11:31:03.093Z,13.81
2022-10-20T11:32:03.197Z,13.71
2022-10-20T11:33:02.952Z,13.72
2022-10-20T11:34:03.020Z,13.68
2022-10-20T11:35:02.485Z,13.71
2022-10-20T11:36:03.046Z,13.70
2022-10-20T11:37:03.108Z,13.72
2022-10-20T11:38:03.719Z,13.76
2022-10-20T11:39:03.508Z,13.79
2022-10-20T11:40:07.552Z,13.73
2022-10-20T11:41:03.510Z,13.79
2022-10-20T11:42:03.511Z,13.82
2022-10-20T11:43:03.245Z,13.83
2022-10-20T11:44:02.700Z,13.84
2022-10-20T11:45:03.385Z,13.84
2022-10-20T11:46:03.059Z,13.80
2022-10-20T11:47:02.733Z,13.82
2022-10-20T11:48:03.555Z,13.82
2022-10-20T11:49:04.119Z,13.78
2022-10-20T11:50:03.275Z,13.77
2022-10-20T11:51:03.007Z,13.79
2022-10-20T11:52:03.027Z,13.80
2022-10-20T11:53:03.622Z,13.80
2022-10-20T11:54:03.576Z,13.78
2022-10-20T11:55:03.809Z,13.82
2022-10-20T11:56:03.592Z,13.81
2022-10-20T11:57:03.679Z,13.77
2022-10-20T11:58:03.509Z,13.74
2022-10-20T11:59:03.472Z,13.70
2022-10-20T12:00:03.197Z,13.68
2022-10-20T12:01:03.516Z,13.59
2022-10-20T12:02:03.521Z,13.57
2022-10-20T12:03:02.752Z,13.61
2022-10-20T12:04:03.082Z,13.56
2022-10-20T12:05:02.566Z,13.55
2022-10-20T12:06:07.544Z,13.59
2022-10-20T12:07:02.526Z,13.53
2022-10-20T12:08:24.543Z,13.57
2022-10-20T12:09:03.210Z,13.56
2022-10-20T12:10:02.943Z,13.53
2022-10-20T12:11:03.216Z,13.56
2022-10-20T12:12:02.895Z,13.61
2022-10-20T12:13:02.768Z,13.62
2022-10-20T12:14:03.031Z,13.67
2022-10-20T12:15:03.092Z,13.72
2022-10-20T12:16:03.146Z,13.70
2022-10-20T12:17:02.880Z,13.71
2022-10-20T12:18:02.237Z,13.75
2022-10-20T12:19:02.347Z,13.77
2022-10-20T12:20:02.613Z,13.76
2022-10-20T12:21:02.719Z,13.81
2022-10-20T12:22:02.762Z,13.77
2022-10-20T12:23:03.373Z,13.76
2022-10-20T12:24:03.505Z,13.80
2022-10-20T12:25:03.506Z,13.82
2022-10-20T12:26:03.085Z,13.84
2022-10-20T12:27:02.892Z,13.88
2022-10-20T12:28:03.209Z,13.91
2022-10-20T12:29:03.085Z,13.89
2022-10-20T12:30:03.085Z,13.86
2022-10-20T12:31:03.555Z,13.85
2022-10-20T12:32:03.340Z,13.84
2022-10-20T12:33:02.329Z,13.84
2022-10-20T12:34:02.829Z,13.83
2022-10-20T12:35:02.406Z,13.82
2022-10-20T12:36:02.518Z,13.83
2022-10-20T12:38:02.998Z,13.84
2022-10-20T12:39:02.874Z,13.82
2022-10-20T12:40:03.016Z,13.81
2022-10-20T12:41:02.867Z,13.79
2022-10-20T12:42:02.917Z,13.82
2022-10-20T12:43:03.193Z,13.85
2022-10-20T12:44:03.174Z,13.84
2022-10-20T12:45:02.778Z,13.86
2022-10-20T12:46:03.147Z,13.89
2022-10-20T12:47:03.075Z,13.93
2022-10-20T12:48:03.096Z,13.95
2022-10-20T12:49:05.563Z,13.95
2022-10-20T12:50:03.123Z,13.98
2022-10-20T12:51:03.539Z,14.01
2022-10-20T12:52:03.139Z,14.02
2022-10-20T12:53:02.439Z,14.00
2022-10-20T12:54:02.427Z,13.94
2022-10-20T12:55:02.456Z,13.97
2022-10-20T12:56:02.522Z,13.96
2022-10-20T12:57:02.511Z,13.95
2022-10-20T12:58:02.391Z,13.95
2022-10-20T12:59:02.851Z,13.94